createdAt,value
2017-11-29T00:00:56.726Z,0.00
2017-11-29T00:01:56.699Z,0.00
2017-11-29T00:02:56.672Z,0.00
2017-11-29T00:03:56.646Z,0.00
2017-11-29T00:04:56.616Z,0.00
2017-11-29T00:05:56.591Z,0.00
2017-11-29T00:06:56.566Z,0.00
2017-11-29T00:07:56.539Z,0.00
2017-11-29T00:08:56.521Z,0.00
2017-11-29T00:09:56.484Z,0.00
2017-11-29T00:10:56.457Z,0.00
2017-11-29T00:11:56.438Z,0.00
2017-11-29T00:12:56.404Z,0.00
2017-11-29T00:13:56.379Z,0.00
2017-11-29T00:14:56.351Z,0.00
2017-11-29T00:15:56.322Z,0.00
2017-11-29T00:16:56.309Z,0.00
2017-11-29T00:17:56.272Z,0.00
2017-11-29T00:18:56.245Z,0.00
2017-11-29T00:19:56.217Z,0.00
2017-11-29T00:20:56.189Z,0.00
2017-11-29T00:21:56.164Z,0.00
2017-11-29T00:22:56.136Z,0.00
2017-11-29T00:23:56.111Z,0.00
2017-11-29T00:24:56.084Z,0.00
2017-11-29T00:25:56.059Z,0.00
2017-11-29T00:26:56.030Z,0.00
2017-11-29T00:27:56.004Z,0.00
2017-11-29T00:28:55.977Z,0.00
2017-11-29T00:29:55.951Z,0.00
2017-11-29T00:30:55.921Z,0.00
2017-11-29T00:31:55.896Z,0.00
2017-11-29T00:32:55.869Z,0.00
2017-11-29T00:33:55.841Z,0.00
2017-11-29T00:34:55.816Z,0.00
2017-11-29T00:35:55.790Z,0.00
2017-11-29T00:36:55.762Z,0.00
2017-11-29T00:37:55.734Z,0.00
2017-11-29T00:38:55.709Z,0.00
2017-11-29T00:39:55.681Z,0.00
2017-11-29T00:40:55.653Z,0.00
2017-11-29T00:41:55.631Z,0.00
2017-11-29T00:42:55.599Z,0.00
2017-11-29T00:43:55.575Z,0.00
2017-11-29T00:44:55.547Z,0.00
2017-11-29T00:45:55.524Z,0.00
2017-11-29T00:46:55.493Z,0.00
2017-11-29T00:47:55.468Z,0.00
2017-11-29T00:48:55.443Z,0.00
2017-11-29T00:49:55.412Z,0.00
2017-11-29T00:50:55.388Z,0.00
2017-11-29T00:51:55.361Z,0.00
2017-11-29T00:52:55.332Z,0.00
2017-11-29T00:53:55.307Z,0.00
2017-11-29T00:54:55.279Z,0.00
2017-11-29T00:55:55.253Z,0.00
2017-11-29T00:56:55.225Z,0.00
2017-11-29T00:57:55.199Z,0.00
2017-11-29T00:58:55.171Z,0.00
2017-11-29T00:59:55.145Z,0.00
2017-11-29T01:00:55.118Z,0.00
2017-11-29T01:01:55.092Z,0.00
2017-11-29T01:02:55.066Z,0.00
2017-11-29T01:03:55.044Z,0.00
2017-11-29T01:04:55.011Z,0.00
2017-11-29T01:05:54.983Z,0.00
2017-11-29T01:06:54.957Z,0.00
2017-11-29T01:07:54.930Z,0.00
2017-11-29T01:08:54.903Z,0.00
2017-11-29T01:09:54.878Z,0.00
2017-11-29T01:10:54.859Z,0.00
2017-11-29T01:11:54.824Z,0.00
2017-11-29T01:12:54.798Z,0.00
2017-11-29T01:13:54.774Z,0.00
2017-11-29T01:14:54.742Z,0.00
2017-11-29T01:15:54.716Z,0.00
2017-11-29T01:16:54.687Z,0.00
2017-11-29T01:17:54.662Z,0.00
2017-11-29T01:18:54.634Z,0.00
2017-11-29T01:19:54.607Z,0.00
2017-11-29T01:20:54.583Z,0.00
2017-11-29T01:21:54.556Z,0.00
2017-11-29T01:22:54.526Z,0.00
2017-11-29T01:23:54.501Z,0.00
2017-11-29T01:24:54.473Z,0.00
2017-11-29T01:25:54.447Z,0.00
2017-11-29T01:26:54.425Z,0.00
2017-11-29T01:27:54.392Z,0.00
2017-11-29T01:28:54.366Z,0.00
2017-11-29T01:29:54.338Z,0.00
2017-11-29T01:30:54.311Z,0.00
2017-11-29T01:31:54.285Z,0.00
2017-11-29T01:32:54.257Z,0.00
2017-11-29T01:33:54.230Z,0.00
2017-11-29T01:34:54.202Z,0.00
2017-11-29T01:35:54.176Z,0.00
2017-11-29T01:36:54.149Z,0.00
2017-11-29T01:37:54.124Z,0.00
2017-11-29T01:38:54.095Z,0.00
2017-11-29T01:39:54.069Z,0.00
2017-11-29T01:40:54.043Z,0.00
2017-11-29T01:41:54.014Z,0.00
2017-11-29T01:42:53.993Z,0.00
2017-11-29T01:43:53.961Z,0.00
2017-11-29T01:44:53.934Z,0.00
2017-11-29T01:45:53.905Z,0.00
2017-11-29T01:46:53.879Z,0.00
2017-11-29T01:47:53.852Z,0.00
2017-11-29T01:48:53.826Z,0.00
2017-11-29T01:49:53.798Z,0.00
2017-11-29T01:50:53.771Z,0.00
2017-11-29T01:51:53.744Z,0.00
2017-11-29T01:52:53.716Z,0.00
2017-11-29T01:53:53.691Z,0.00
2017-11-29T01:54:53.662Z,0.00
2017-11-29T01:55:53.641Z,0.00
2017-11-29T01:56:53.608Z,0.00
2017-11-29T01:57:53.584Z,0.00
2017-11-29T01:58:53.556Z,0.00
2017-11-29T01:59:53.529Z,0.00
2017-11-29T02:00:53.502Z,0.00
2017-11-29T02:01:53.475Z,0.00
2017-11-29T02:02:53.448Z,0.00
2017-11-29T02:03:53.424Z,0.00
2017-11-29T02:04:53.393Z,0.00
2017-11-29T02:05:53.369Z,0.00
2017-11-29T02:06:53.340Z,0.00
2017-11-29T02:07:53.314Z,0.00
2017-11-29T02:08:53.285Z,0.00
2017-11-29T02:09:53.268Z,0.00
2017-11-29T02:10:53.234Z,0.00
2017-11-29T02:11:53.207Z,0.00
2017-11-29T02:12:53.180Z,0.00
2017-11-29T02:13:53.152Z,0.00
2017-11-29T02:14:53.125Z,0.00
2017-11-29T02:15:53.098Z,0.00
2017-11-29T02:16:53.074Z,0.00
2017-11-29T02:17:53.045Z,0.00
2017-11-29T02:18:53.019Z,0.00
2017-11-29T02:19:52.993Z,0.00
2017-11-29T02:20:52.965Z,0.00
2017-11-29T02:21:52.939Z,0.00
2017-11-29T02:22:52.911Z,0.00
2017-11-29T02:23:52.886Z,0.00
2017-11-29T02:24:52.860Z,0.00
2017-11-29T02:25:52.831Z,0.00
2017-11-29T02:26:52.805Z,0.00
2017-11-29T02:27:52.777Z,0.00
2017-11-29T02:28:52.753Z,0.00
2017-11-29T02:29:52.724Z,0.00
2017-11-29T02:30:52.699Z,0.00
2017-11-29T02:31:52.674Z,0.00
2017-11-29T02:32:52.645Z,0.00
2017-11-29T02:33:52.616Z,0.00
2017-11-29T02:34:52.594Z,0.00
2017-11-29T02:35:52.566Z,0.00
2017-11-29T02:36:52.539Z,0.00
2017-11-29T02:37:52.513Z,0.00
2017-11-29T02:38:52.482Z,0.00
2017-11-29T02:39:52.460Z,0.00
2017-11-29T02:40:52.431Z,0.00
2017-11-29T02:41:52.406Z,0.00
2017-11-29T02:42:52.375Z,0.00
2017-11-29T02:43:52.351Z,0.00
2017-11-29T02:44:52.323Z,0.00
2017-11-29T02:45:52.297Z,0.00
2017-11-29T02:46:52.269Z,0.00
2017-11-29T02:47:52.241Z,0.00
2017-11-29T02:48:52.224Z,0.00
2017-11-29T02:49:52.191Z,0.00
2017-11-29T02:50:52.166Z,0.00
2017-11-29T02:51:52.135Z,0.00
2017-11-29T02:52:52.109Z,0.00
2017-11-29T02:53:52.083Z,0.00
2017-11-29T02:54:52.056Z,0.00
2017-11-29T02:55:52.029Z,0.00
2017-11-29T02:56:52.001Z,0.00
2017-11-29T02:57:51.974Z,0.00
2017-11-29T02:58:51.946Z,0.00
2017-11-29T02:59:51.928Z,0.00
2017-11-29T03:00:51.893Z,0.00
2017-11-29T03:01:51.867Z,0.00
2017-11-29T03:02:51.841Z,0.00
2017-11-29T03:03:51.813Z,0.00
2017-11-29T03:04:51.786Z,0.00
2017-11-29T03:05:51.759Z,0.00
2017-11-29T03:06:51.741Z,0.00
2017-11-29T03:07:51.705Z,0.00
2017-11-29T03:08:51.679Z,0.00
2017-11-29T03:09:51.652Z,0.00
2017-11-29T03:10:51.626Z,0.00
2017-11-29T03:11:51.599Z,0.00
2017-11-29T03:12:51.573Z,0.00
2017-11-29T03:13:51.546Z,0.00
2017-11-29T03:14:51.522Z,0.00
2017-11-29T03:15:51.491Z,0.00
2017-11-29T03:16:51.466Z,0.00
2017-11-29T03:17:51.438Z,0.00
2017-11-29T03:18:51.411Z,0.00
2017-11-29T03:19:51.385Z,0.00
2017-11-29T03:20:51.359Z,0.00
2017-11-29T03:21:51.332Z,0.00
2017-11-29T03:22:51.304Z,0.00
2017-11-29T03:23:51.276Z,0.00
2017-11-29T03:24:51.252Z,0.00
2017-11-29T03:25:51.223Z,0.00
2017-11-29T03:26:51.197Z,0.00
2017-11-29T03:27:51.170Z,0.00
2017-11-29T03:28:51.143Z,0.00
2017-11-29T03:29:51.116Z,0.00
2017-11-29T03:30:51.094Z,0.00
2017-11-29T03:31:51.065Z,0.00
2017-11-29T03:32:51.039Z,0.00
2017-11-29T03:33:51.008Z,0.00
2017-11-29T03:34:50.981Z,0.00
2017-11-29T03:35:50.956Z,0.00
2017-11-29T03:36:50.928Z,0.00
2017-11-29T03:37:50.902Z,0.00
2017-11-29T03:38:50.874Z,0.00
2017-11-29T03:39:50.848Z,0.00
2017-11-29T03:40:50.822Z,0.00
2017-11-29T03:41:50.795Z,0.00
2017-11-29T03:42:50.768Z,0.00
2017-11-29T03:43:50.740Z,0.00
2017-11-29T03:44:50.712Z,0.00
2017-11-29T03:45:50.687Z,0.00
2017-11-29T03:46:50.659Z,0.00
2017-11-29T03:47:50.633Z,0.00
2017-11-29T03:48:50.606Z,0.00
2017-11-29T03:49:50.587Z,0.00
2017-11-29T03:50:50.553Z,0.00
2017-11-29T03:51:50.529Z,0.00
2017-11-29T03:52:50.500Z,0.00
2017-11-29T03:53:50.482Z,0.00
2017-11-29T03:54:50.445Z,0.00
2017-11-29T03:55:50.421Z,0.00
2017-11-29T03:56:50.394Z,0.00
2017-11-29T03:57:50.366Z,0.00
2017-11-29T03:58:50.338Z,0.00
2017-11-29T03:59:50.311Z,0.00
2017-11-29T04:00:50.286Z,0.00
2017-11-29T04:01:50.260Z,0.00
2017-11-29T04:02:50.233Z,0.00
2017-11-29T04:03:50.208Z,0.00
2017-11-29T04:04:50.179Z,0.00
2017-11-29T04:05:50.160Z,0.00
2017-11-29T04:06:50.125Z,0.00
2017-11-29T04:07:50.098Z,0.00
2017-11-29T04:08:50.072Z,0.00
2017-11-29T04:09:50.046Z,0.00
2017-11-29T04:10:50.021Z,0.00
2017-11-29T04:11:49.993Z,0.00
2017-11-29T04:12:49.966Z,0.00
2017-11-29T04:13:49.937Z,0.00
2017-11-29T04:14:49.911Z,0.00
2017-11-29T04:15:49.887Z,0.00
2017-11-29T04:16:49.861Z,0.00
2017-11-29T04:17:49.835Z,0.00
2017-11-29T04:18:49.808Z,0.00
2017-11-29T04:19:49.781Z,0.00
2017-11-29T04:20:49.755Z,0.00
2017-11-29T04:21:49.728Z,0.00
2017-11-29T04:22:49.701Z,0.00
2017-11-29T04:23:49.676Z,0.00
2017-11-29T04:24:49.648Z,0.00
2017-11-29T04:25:49.631Z,0.00
2017-11-29T04:26:49.594Z,0.00
2017-11-29T04:27:49.568Z,0.00
2017-11-29T04:28:49.541Z,0.00
2017-11-29T04:29:49.514Z,0.00
2017-11-29T04:30:49.487Z,0.00
2017-11-29T04:31:49.462Z,0.00
2017-11-29T04:32:49.435Z,0.00
2017-11-29T04:33:49.411Z,0.00
2017-11-29T04:34:49.382Z,0.00
2017-11-29T04:35:49.357Z,0.00
2017-11-29T04:36:49.332Z,0.00
2017-11-29T04:37:49.304Z,0.00
2017-11-29T04:38:49.275Z,0.00
2017-11-29T04:39:49.264Z,0.00
2017-11-29T04:40:49.223Z,0.00
2017-11-29T04:41:49.196Z,0.00
2017-11-29T04:42:49.170Z,0.00
2017-11-29T04:43:49.144Z,0.00
2017-11-29T04:44:49.118Z,0.00
2017-11-29T04:45:49.092Z,0.00
2017-11-29T04:46:49.063Z,0.00
2017-11-29T04:47:49.036Z,0.00
2017-11-29T04:48:49.013Z,0.00
2017-11-29T04:49:48.984Z,0.00
2017-11-29T04:50:48.958Z,0.00
2017-11-29T04:51:48.930Z,0.00
2017-11-29T04:52:48.906Z,0.00
2017-11-29T04:53:48.879Z,0.00
2017-11-29T04:54:48.850Z,0.00
2017-11-29T04:55:48.824Z,0.00
2017-11-29T04:56:48.798Z,0.00
2017-11-29T04:57:48.771Z,0.00
2017-11-29T04:58:48.746Z,0.00
2017-11-29T04:59:48.717Z,0.00
2017-11-29T05:00:48.694Z,0.00
2017-11-29T05:01:48.665Z,0.00
2017-11-29T05:02:48.638Z,0.00
2017-11-29T05:03:48.610Z,0.00
2017-11-29T05:04:48.582Z,0.00
2017-11-29T05:05:48.558Z,0.00
2017-11-29T05:06:48.533Z,0.00
2017-11-29T05:07:48.506Z,0.00
2017-11-29T05:08:48.486Z,0.00
2017-11-29T05:09:48.452Z,0.00
2017-11-29T05:10:48.425Z,0.00
2017-11-29T05:11:48.399Z,0.00
2017-11-29T05:12:48.376Z,0.00
2017-11-29T05:13:48.345Z,0.00
2017-11-29T05:14:48.317Z,0.00
2017-11-29T05:15:48.290Z,0.00
2017-11-29T05:16:48.264Z,0.00
2017-11-29T05:17:48.237Z,0.00
2017-11-29T05:18:48.209Z,0.00
2017-11-29T05:19:48.183Z,0.00
2017-11-29T05:20:48.157Z,0.00
2017-11-29T05:21:48.131Z,0.00
2017-11-29T05:22:48.108Z,0.00
2017-11-29T05:23:48.076Z,0.00
2017-11-29T05:24:48.049Z,0.00
2017-11-29T05:25:48.022Z,0.00
2017-11-29T05:26:47.995Z,0.00
2017-11-29T05:27:47.968Z,0.00
2017-11-29T05:28:47.942Z,0.00
2017-11-29T05:29:47.914Z,0.00
2017-11-29T05:30:47.889Z,0.00
2017-11-29T05:31:47.864Z,0.00
2017-11-29T05:32:47.833Z,0.00
2017-11-29T05:33:47.806Z,0.00
2017-11-29T05:34:47.812Z,0.00
2017-11-29T05:35:47.754Z,0.00
2017-11-29T05:36:47.727Z,0.00
2017-11-29T05:37:47.700Z,0.00
2017-11-29T05:38:47.672Z,0.00
2017-11-29T05:39:47.649Z,0.00
2017-11-29T05:40:47.620Z,0.00
2017-11-29T05:41:47.595Z,0.00
2017-11-29T05:42:47.565Z,0.00
2017-11-29T05:43:47.549Z,0.00
2017-11-29T05:44:47.513Z,0.00
2017-11-29T05:45:47.485Z,0.00
2017-11-29T05:46:47.459Z,0.00
2017-11-29T05:47:47.432Z,0.00
2017-11-29T05:48:47.406Z,0.00
2017-11-29T05:49:47.378Z,0.00
2017-11-29T05:50:47.353Z,0.00
2017-11-29T05:51:47.325Z,0.00
2017-11-29T05:52:47.299Z,0.00
2017-11-29T05:53:47.274Z,0.00
2017-11-29T05:54:47.245Z,0.00
2017-11-29T05:55:47.219Z,0.00
2017-11-29T05:56:47.193Z,0.00
2017-11-29T05:57:47.165Z,0.00
2017-11-29T05:58:47.138Z,0.00
2017-11-29T05:59:47.111Z,0.00
2017-11-29T06:00:47.126Z,0.00
2017-11-29T06:01:47.057Z,0.00
2017-11-29T06:02:47.030Z,0.00
2017-11-29T06:03:47.008Z,0.00
2017-11-29T06:04:46.980Z,0.00
2017-11-29T06:05:46.951Z,0.00
2017-11-29T06:06:46.926Z,0.00
2017-11-29T06:07:46.898Z,0.00
2017-11-29T06:08:46.874Z,0.00
2017-11-29T06:09:46.843Z,0.00
2017-11-29T06:10:46.817Z,0.00
2017-11-29T06:11:46.795Z,0.00
2017-11-29T06:12:46.763Z,0.00
2017-11-29T06:13:46.738Z,0.00
2017-11-29T06:14:46.709Z,0.00
2017-11-29T06:15:46.682Z,0.00
2017-11-29T06:16:46.655Z,0.00
2017-11-29T06:17:46.630Z,0.00
2017-11-29T06:18:46.602Z,0.00
2017-11-29T06:19:46.575Z,0.00
2017-11-29T06:20:46.548Z,0.00
2017-11-29T06:21:46.523Z,0.00
2017-11-29T06:22:46.494Z,0.00
2017-11-29T06:23:46.468Z,0.00
2017-11-29T06:24:46.442Z,0.00
2017-11-29T06:25:46.414Z,0.00
2017-11-29T06:26:46.391Z,0.00
2017-11-29T06:27:46.361Z,0.00
2017-11-29T06:28:46.333Z,0.00
2017-11-29T06:29:46.307Z,0.00
2017-11-29T06:30:46.279Z,0.00
2017-11-29T06:31:46.263Z,0.00
2017-11-29T06:32:46.236Z,0.00
2017-11-29T06:33:46.201Z,0.00
2017-11-29T06:34:46.173Z,0.00
2017-11-29T06:35:46.147Z,0.00
2017-11-29T06:36:46.125Z,0.00
2017-11-29T06:37:46.105Z,0.00
2017-11-29T06:38:46.069Z,0.00
2017-11-29T06:39:46.060Z,0.00
2017-11-29T06:40:46.013Z,0.00
2017-11-29T06:41:45.987Z,0.00
2017-11-29T06:42:45.959Z,0.00
2017-11-29T06:43:45.933Z,0.00
2017-11-29T06:44:45.905Z,0.00
2017-11-29T06:45:45.885Z,0.00
2017-11-29T06:46:45.853Z,0.00
2017-11-29T06:47:45.824Z,0.00
2017-11-29T06:48:45.800Z,0.00
2017-11-29T06:49:45.773Z,0.00
2017-11-29T06:50:45.745Z,0.00
2017-11-29T06:51:45.720Z,0.00
2017-11-29T06:52:45.693Z,0.00
2017-11-29T06:53:45.666Z,0.00
2017-11-29T06:54:45.640Z,0.00
2017-11-29T06:55:45.612Z,0.00
2017-11-29T06:56:45.587Z,0.00
2017-11-29T06:57:45.567Z,0.00
2017-11-29T06:58:45.533Z,0.00
2017-11-29T06:59:45.506Z,0.00
2017-11-29T07:00:45.480Z,0.00
2017-11-29T07:01:45.453Z,0.00
2017-11-29T07:02:45.430Z,0.00
2017-11-29T07:03:45.405Z,0.00
2017-11-29T07:04:45.376Z,0.00
2017-11-29T07:05:45.347Z,5.63
2017-11-29T07:06:45.320Z,5.63
2017-11-29T07:07:45.296Z,5.63
2017-11-29T07:08:45.266Z,5.63
2017-11-29T07:09:45.239Z,5.63
2017-11-29T07:10:45.214Z,5.63
2017-11-29T07:11:45.194Z,5.63
2017-11-29T07:12:45.158Z,5.63
2017-11-29T07:13:45.133Z,11.25
2017-11-29T07:14:45.111Z,11.25
2017-11-29T07:15:45.082Z,11.25
2017-11-29T07:16:45.053Z,11.25
2017-11-29T07:17:45.025Z,11.25
2017-11-29T07:18:44.999Z,11.25
2017-11-29T07:19:44.972Z,16.88
2017-11-29T07:20:44.956Z,16.88
2017-11-29T07:21:44.920Z,16.88
2017-11-29T07:22:44.891Z,16.88
2017-11-29T07:23:44.865Z,16.88
2017-11-29T07:24:44.838Z,16.88
2017-11-29T07:25:44.813Z,16.88
2017-11-29T07:26:44.783Z,22.50
2017-11-29T07:27:44.758Z,22.50
2017-11-29T07:28:44.733Z,22.50
2017-11-29T07:29:44.707Z,22.50
2017-11-29T07:30:44.683Z,28.13
2017-11-29T07:31:44.650Z,28.13
2017-11-29T07:32:44.629Z,28.13
2017-11-29T07:33:44.598Z,33.75
2017-11-29T07:34:44.568Z,33.75
2017-11-29T07:35:44.543Z,33.75
2017-11-29T07:36:44.517Z,39.38
2017-11-29T07:37:44.490Z,39.38
2017-11-29T07:38:44.463Z,39.38
2017-11-29T07:39:44.436Z,45.00
2017-11-29T07:40:44.410Z,45.00
2017-11-29T07:41:44.384Z,45.00
2017-11-29T07:42:44.360Z,45.00
2017-11-29T07:43:44.329Z,50.63
2017-11-29T07:44:44.302Z,50.63
2017-11-29T07:45:44.276Z,50.63
2017-11-29T07:46:44.248Z,56.25
2017-11-29T07:47:44.222Z,56.25
2017-11-29T07:48:44.193Z,56.25
2017-11-29T07:49:44.174Z,56.25
2017-11-29T07:50:44.135Z,56.25
2017-11-29T07:51:44.115Z,56.25
2017-11-29T07:52:44.088Z,56.25
2017-11-29T07:53:44.060Z,56.25
2017-11-29T07:54:44.034Z,56.25
2017-11-29T07:55:44.009Z,61.88
2017-11-29T07:56:43.980Z,67.50
2017-11-29T07:57:43.955Z,67.50
2017-11-29T07:58:43.927Z,73.13
2017-11-29T07:59:43.901Z,73.13
2017-11-29T08:00:43.874Z,73.13
2017-11-29T08:01:43.846Z,78.75
2017-11-29T08:02:43.819Z,78.75
2017-11-29T08:03:43.791Z,78.75
2017-11-29T08:04:43.766Z,84.38
2017-11-29T08:05:43.743Z,84.38
2017-11-29T08:06:43.712Z,84.38
2017-11-29T08:07:43.686Z,78.75
2017-11-29T08:08:43.660Z,84.38
2017-11-29T08:09:43.634Z,84.38
2017-11-29T08:10:43.606Z,90.00
2017-11-29T08:11:43.580Z,101.25
2017-11-29T08:12:43.557Z,101.25
2017-11-29T08:13:43.540Z,101.25
2017-11-29T08:14:43.500Z,106.88
2017-11-29T08:15:43.475Z,112.50
2017-11-29T08:16:43.446Z,101.25
2017-11-29T08:17:43.421Z,78.75
2017-11-29T08:18:43.394Z,78.75
2017-11-29T08:19:43.367Z,67.50
2017-11-29T08:20:43.341Z,73.13
2017-11-29T08:21:43.314Z,73.13
2017-11-29T08:22:43.288Z,73.13
2017-11-29T08:23:43.261Z,73.13
2017-11-29T08:24:43.235Z,73.13
2017-11-29T08:25:43.209Z,61.88
2017-11-29T08:26:43.184Z,56.25
2017-11-29T08:27:43.156Z,56.25
2017-11-29T08:28:43.131Z,61.88
2017-11-29T08:29:43.104Z,61.88
2017-11-29T08:30:43.079Z,67.50
2017-11-29T08:31:43.053Z,67.50
2017-11-29T08:32:43.025Z,67.50
2017-11-29T08:33:42.996Z,61.88
2017-11-29T08:34:42.975Z,67.50
2017-11-29T08:35:42.946Z,73.13
2017-11-29T08:36:42.920Z,73.13
2017-11-29T08:37:42.894Z,73.13
2017-11-29T08:38:42.869Z,78.75
2017-11-29T08:39:42.840Z,73.13
2017-11-29T08:40:42.816Z,73.13
2017-11-29T08:41:42.789Z,78.75
2017-11-29T08:42:42.762Z,84.38
2017-11-29T08:43:42.737Z,73.13
2017-11-29T08:44:42.711Z,67.50
2017-11-29T08:45:42.683Z,73.13
2017-11-29T08:46:42.657Z,84.38
2017-11-29T08:47:42.632Z,90.00
2017-11-29T08:48:42.606Z,90.00
2017-11-29T08:49:42.579Z,84.38
2017-11-29T08:50:42.554Z,84.38
2017-11-29T08:51:42.527Z,78.75
2017-11-29T08:52:42.498Z,90.00
2017-11-29T08:53:42.476Z,95.63
2017-11-29T08:54:42.453Z,106.88
2017-11-29T08:55:42.423Z,106.88
2017-11-29T08:56:42.405Z,101.25
2017-11-29T08:57:42.371Z,95.63
2017-11-29T08:58:42.343Z,106.88
2017-11-29T08:59:42.319Z,112.50
2017-11-29T09:00:42.293Z,118.13
2017-11-29T09:01:42.277Z,118.13
2017-11-29T09:02:42.240Z,112.50
2017-11-29T09:03:42.214Z,101.25
2017-11-29T09:04:42.189Z,95.63
2017-11-29T09:05:42.162Z,101.25
2017-11-29T09:06:42.135Z,106.88
2017-11-29T09:07:42.109Z,106.88
2017-11-29T09:08:42.083Z,112.50
2017-11-29T09:09:42.057Z,112.50
2017-11-29T09:10:42.032Z,112.50
2017-11-29T09:11:42.005Z,112.50
2017-11-29T09:12:41.985Z,106.88
2017-11-29T09:13:41.953Z,112.50
2017-11-29T09:14:41.930Z,106.88
2017-11-29T09:15:41.902Z,106.88
2017-11-29T09:16:41.876Z,118.13
2017-11-29T09:17:41.853Z,106.88
2017-11-29T09:18:41.823Z,106.88
2017-11-29T09:19:41.797Z,106.88
2017-11-29T09:20:41.770Z,106.88
2017-11-29T09:21:41.747Z,118.13
2017-11-29T09:22:41.719Z,112.50
2017-11-29T09:23:41.700Z,106.88
2017-11-29T09:24:41.665Z,112.50
2017-11-29T09:25:41.642Z,118.13
2017-11-29T09:26:41.616Z,112.50
2017-11-29T09:27:41.588Z,90.00
2017-11-29T09:28:41.568Z,90.00
2017-11-29T09:29:41.540Z,106.88
2017-11-29T09:30:41.515Z,112.50
2017-11-29T09:31:41.486Z,101.25
2017-11-29T09:32:41.459Z,112.50
2017-11-29T09:33:41.435Z,123.75
2017-11-29T09:34:41.409Z,151.88
2017-11-29T09:35:41.384Z,151.88
2017-11-29T09:36:41.357Z,140.63
2017-11-29T09:37:41.330Z,129.38
2017-11-29T09:38:41.305Z,123.75
2017-11-29T09:39:41.280Z,123.75
2017-11-29T09:40:41.254Z,135.00
2017-11-29T09:41:41.227Z,140.63
2017-11-29T09:42:41.204Z,146.25
2017-11-29T09:43:41.185Z,140.63
2017-11-29T09:44:41.153Z,112.50
2017-11-29T09:45:41.126Z,118.13
2017-11-29T09:46:41.098Z,112.50
2017-11-29T09:47:41.073Z,118.13
2017-11-29T09:48:41.048Z,129.38
2017-11-29T09:49:41.019Z,123.75
2017-11-29T09:50:40.996Z,123.75
2017-11-29T09:51:40.971Z,123.75
2017-11-29T09:52:40.944Z,123.75
2017-11-29T09:53:40.919Z,118.13
2017-11-29T09:54:40.894Z,123.75
2017-11-29T09:55:40.870Z,118.13
2017-11-29T09:56:40.841Z,112.50
2017-11-29T09:57:40.816Z,101.25
2017-11-29T09:58:40.789Z,101.25
2017-11-29T09:59:40.767Z,95.63
2017-11-29T10:00:40.739Z,90.00
2017-11-29T10:01:40.713Z,90.00
2017-11-29T10:02:40.688Z,95.63
2017-11-29T10:03:40.662Z,106.88
2017-11-29T10:04:40.638Z,106.88
2017-11-29T10:05:40.610Z,106.88
2017-11-29T10:06:40.582Z,112.50
2017-11-29T10:07:40.567Z,112.50
2017-11-29T10:08:40.536Z,112.50
2017-11-29T10:09:40.507Z,106.88
2017-11-29T10:10:40.480Z,112.50
2017-11-29T10:11:40.456Z,118.13
2017-11-29T10:12:40.428Z,118.13
2017-11-29T10:13:40.403Z,112.50
2017-11-29T10:14:40.375Z,101.25
2017-11-29T10:15:40.350Z,95.63
2017-11-29T10:16:40.325Z,95.63
2017-11-29T10:17:40.299Z,101.25
2017-11-29T10:18:40.272Z,106.88
2017-11-29T10:19:40.252Z,106.88
2017-11-29T10:20:40.221Z,106.88
2017-11-29T10:21:40.196Z,101.25
2017-11-29T10:22:40.168Z,95.63
2017-11-29T10:23:40.148Z,101.25
2017-11-29T10:24:40.117Z,106.88
2017-11-29T10:25:40.091Z,112.50
2017-11-29T10:26:40.064Z,112.50
2017-11-29T10:27:40.040Z,112.50
2017-11-29T10:28:40.017Z,106.88
2017-11-29T10:29:39.987Z,101.25
2017-11-29T10:30:39.960Z,101.25
2017-11-29T10:31:39.934Z,112.50
2017-11-29T10:32:39.909Z,112.50
2017-11-29T10:33:39.884Z,106.88
2017-11-29T10:34:39.855Z,106.88
2017-11-29T10:35:39.829Z,118.13
2017-11-29T10:36:39.806Z,118.13
2017-11-29T10:37:39.780Z,123.75
2017-11-29T10:38:39.751Z,129.38
2017-11-29T10:39:39.728Z,123.75
2017-11-29T10:40:39.698Z,118.13
2017-11-29T10:41:39.675Z,112.50
2017-11-29T10:42:39.646Z,112.50
2017-11-29T10:43:39.656Z,106.88
2017-11-29T10:44:39.596Z,112.50
2017-11-29T10:45:39.570Z,112.50
2017-11-29T10:46:39.543Z,118.13
2017-11-29T10:47:39.521Z,123.75
2017-11-29T10:48:39.490Z,118.13
2017-11-29T10:49:39.466Z,118.13
2017-11-29T10:50:39.438Z,118.13
2017-11-29T10:51:39.413Z,118.13
2017-11-29T10:52:39.387Z,112.50
2017-11-29T10:53:39.362Z,106.88
2017-11-29T10:54:39.333Z,106.88
2017-11-29T10:55:39.317Z,106.88
2017-11-29T10:56:39.281Z,106.88
2017-11-29T10:57:39.257Z,106.88
2017-11-29T10:58:39.231Z,106.88
2017-11-29T10:59:39.204Z,106.88
2017-11-29T11:00:39.179Z,112.50
2017-11-29T11:01:39.155Z,118.13
2017-11-29T11:02:39.126Z,112.50
2017-11-29T11:03:39.100Z,101.25
2017-11-29T11:04:39.072Z,112.50
2017-11-29T11:05:39.048Z,118.13
2017-11-29T11:06:39.018Z,112.50
2017-11-29T11:07:38.993Z,129.38
2017-11-29T11:08:38.969Z,157.50
2017-11-29T11:09:38.943Z,151.88
2017-11-29T11:10:38.916Z,157.50
2017-11-29T11:11:38.894Z,140.63
2017-11-29T11:12:38.863Z,129.38
2017-11-29T11:13:38.839Z,112.50
2017-11-29T11:14:38.811Z,106.88
2017-11-29T11:15:38.785Z,95.63
2017-11-29T11:16:38.759Z,84.38
2017-11-29T11:17:38.734Z,73.13
2017-11-29T11:18:38.707Z,67.50
2017-11-29T11:19:38.679Z,67.50
2017-11-29T11:20:38.653Z,61.88
2017-11-29T11:21:38.630Z,61.88
2017-11-29T11:22:38.601Z,67.50
2017-11-29T11:23:38.586Z,67.50
2017-11-29T11:24:38.564Z,67.50
2017-11-29T11:25:38.522Z,73.13
2017-11-29T11:26:38.496Z,78.75
2017-11-29T11:27:38.473Z,73.13
2017-11-29T11:28:38.445Z,78.75
2017-11-29T11:29:38.418Z,78.75
2017-11-29T11:30:38.396Z,84.38
2017-11-29T11:31:38.367Z,90.00
2017-11-29T11:32:38.340Z,95.63
2017-11-29T11:33:38.315Z,101.25
2017-11-29T11:34:38.287Z,106.88
2017-11-29T11:35:38.261Z,118.13
2017-11-29T11:36:38.236Z,118.13
2017-11-29T11:37:38.210Z,123.75
2017-11-29T11:38:38.184Z,135.00
2017-11-29T11:39:38.157Z,146.25
2017-11-29T11:40:38.131Z,151.88
2017-11-29T11:41:38.106Z,151.88
2017-11-29T11:42:38.078Z,140.63
2017-11-29T11:43:38.054Z,140.63
2017-11-29T11:44:38.025Z,146.25
2017-11-29T11:45:38.001Z,140.63
2017-11-29T11:46:37.974Z,140.63
2017-11-29T11:47:37.949Z,140.63
2017-11-29T11:48:37.923Z,151.88
2017-11-29T11:49:37.900Z,151.88
2017-11-29T11:50:37.870Z,151.88
2017-11-29T11:51:37.844Z,151.88
2017-11-29T11:52:37.823Z,157.50
2017-11-29T11:53:37.793Z,174.38
2017-11-29T11:54:37.767Z,185.63
2017-11-29T11:55:37.741Z,168.75
2017-11-29T11:56:37.716Z,157.50
2017-11-29T11:57:37.689Z,151.88
2017-11-29T11:58:37.664Z,135.00
2017-11-29T11:59:37.640Z,129.38
2017-11-29T12:00:37.616Z,129.38
2017-11-29T12:01:37.585Z,135.00
2017-11-29T12:02:37.563Z,129.38
2017-11-29T12:03:37.536Z,135.00
2017-11-29T12:04:37.512Z,157.50
2017-11-29T12:05:37.487Z,157.50
2017-11-29T12:06:37.460Z,151.88
2017-11-29T12:07:37.443Z,168.75
2017-11-29T12:08:37.409Z,168.75
2017-11-29T12:09:37.385Z,151.88
2017-11-29T12:10:37.357Z,140.63
2017-11-29T12:11:37.332Z,146.25
2017-11-29T12:12:37.306Z,118.13
2017-11-29T12:13:37.283Z,112.50
2017-11-29T12:14:37.254Z,112.50
2017-11-29T12:15:37.239Z,112.50
2017-11-29T12:16:37.212Z,106.88
2017-11-29T12:17:37.180Z,101.25
2017-11-29T12:18:37.153Z,95.63
2017-11-29T12:19:37.129Z,95.63
2017-11-29T12:20:37.106Z,84.38
2017-11-29T12:21:37.087Z,78.75
2017-11-29T12:22:37.051Z,73.13
2017-11-29T12:23:37.025Z,84.38
2017-11-29T12:24:37.004Z,95.63
2017-11-29T12:25:36.976Z,101.25
2017-11-29T12:26:36.948Z,106.88
2017-11-29T12:27:36.921Z,112.50
2017-11-29T12:28:36.900Z,123.75
2017-11-29T12:29:36.873Z,129.38
2017-11-29T12:30:36.845Z,135.00
2017-11-29T12:31:36.818Z,129.38
2017-11-29T12:32:36.795Z,118.13
2017-11-29T12:33:36.770Z,106.88
2017-11-29T12:34:36.746Z,106.88
2017-11-29T12:35:36.717Z,101.25
2017-11-29T12:36:36.692Z,106.88
2017-11-29T12:37:36.666Z,112.50
2017-11-29T12:38:36.639Z,106.88
2017-11-29T12:39:36.614Z,106.88
2017-11-29T12:40:36.595Z,106.88
2017-11-29T12:41:36.564Z,106.88
2017-11-29T12:42:36.535Z,101.25
2017-11-29T12:43:36.510Z,106.88
2017-11-29T12:44:36.486Z,106.88
2017-11-29T12:45:36.461Z,118.13
2017-11-29T12:46:36.433Z,129.38
2017-11-29T12:47:36.410Z,135.00
2017-11-29T12:48:36.382Z,140.63
2017-11-29T12:49:36.357Z,135.00
2017-11-29T12:50:36.332Z,129.38
2017-11-29T12:51:36.306Z,135.00
2017-11-29T12:52:36.279Z,146.25
2017-11-29T12:53:36.256Z,146.25
2017-11-29T12:54:36.227Z,140.63
2017-11-29T12:55:36.203Z,140.63
2017-11-29T12:56:36.179Z,151.88
2017-11-29T12:57:36.154Z,157.50
2017-11-29T12:58:36.126Z,151.88
2017-11-29T12:59:36.100Z,140.63